Weather at Purple Springs Airport [CLOSED]

Public forecast

Using degrees Celsius for public forecast. Weather courtesy of forecast.io.

Closest aviation weather report (METAR) to Purple Springs Airport

Closest report is Lethbridge County Airport, 36.1 nm (66.9 km) W.

2024/07/21 04:00 (retrieved 46 minutes ago)

CYQL 210400Z 13003KT 15SM FEW270 21/18 A3023 RMK CI2 FU LAST STFD OBS/NXT 211200Z SLP223 DENSITY ALT 4200FT

Closest aviation forecast (TAF) to Purple Springs Airport

Forecast is more than 12 hours old.

Closest forecast is Malmstrom Air Force Base, 133.9 nm (248.0 km) SSE.

2024/07/19 13:57 (retrieved 2 days ago)

TAF KGFA 191300Z 1913/2019 VRB06KT 9999 SKC QNH3017INS BECMG 1920/1921 35009KT 9999 FEW120 QNH3016INS TX33/1922Z TN16/2012Z